sensor_id;sensor_type;location;lat;lon;timestamp;pressure;altitude;pressure_sealevel;temperature;humidity
57056;BME280;42945;51.718;5.324;2022-11-15T00:00:25;100535.47;;;4.21;100.00
57056;BME280;42945;51.718;5.324;2022-11-15T00:02:54;100618.28;;;5.02;100.00
57056;BME280;42945;51.718;5.324;2022-11-15T00:05:20;131937.06;;;191.27;100.00
57056;BME280;42945;51.718;5.324;2022-11-15T00:07:45;100666.31;;;5.06;100.00
57056;BME280;42945;51.718;5.324;2022-11-15T00:10:11;100517.19;;;4.18;100.00
57056;BME280;42945;51.718;5.324;2022-11-15T00:12:36;100605.13;;;5.02;100.00
57056;BME280;42945;51.718;5.324;2022-11-15T00:15:01;100504.53;;;4.29;100.00
57056;BME280;42945;51.718;5.324;2022-11-15T00:17:27;100621.19;;;4.95;100.00
57056;BME280;42945;51.718;5.324;2022-11-15T00:19:52;100644.47;;;5.04;100.00
57056;BME280;42945;51.718;5.324;2022-11-15T00:22:17;100675.97;;;5.05;100.00
57056;BME280;42945;51.718;5.324;2022-11-15T00:24:43;100667.28;;;5.03;100.00
57056;BME280;42945;51.718;5.324;2022-11-15T00:27:08;100661.16;;;5.26;100.00
57056;BME280;42945;51.718;5.324;2022-11-15T00:29:33;100684.31;;;5.17;100.00
57056;BME280;42945;51.718;5.324;2022-11-15T00:31:59;100697.00;;;5.29;100.00
57056;BME280;42945;51.718;5.324;2022-11-15T00:34:24;100646.59;;;5.18;100.00
57056;BME280;42945;51.718;5.324;2022-11-15T00:36:49;100618.50;;;5.20;100.00
57056;BME280;42945;51.718;5.324;2022-11-15T00:39:14;100625.03;;;5.31;100.00
57056;BME280;42945;51.718;5.324;2022-11-15T00:41:41;100467.31;;;4.65;100.00
57056;BME280;42945;51.718;5.324;2022-11-15T00:44:06;100657.00;;;5.43;100.00
57056;BME280;42945;51.718;5.324;2022-11-15T00:46:32;100628.81;;;5.46;100.00
57056;BME280;42945;51.718;5.324;2022-11-15T00:48:57;100611.44;;;5.42;100.00
57056;BME280;42945;51.718;5.324;2022-11-15T00:51:22;100644.13;;;5.59;100.00
57056;BME280;42945;51.718;5.324;2022-11-15T00:53:48;100646.91;;;5.54;100.00
57056;BME280;42945;51.718;5.324;2022-11-15T00:56:13;100608.94;;;5.61;100.00
57056;BME280;42945;51.718;5.324;2022-11-15T00:58:38;100600.31;;;5.58;100.00
57056;BME280;42945;51.718;5.324;2022-11-15T01:01:09;100521.25;;;4.96;100.00
57056;BME280;42945;51.718;5.324;2022-11-15T01:03:37;100577.16;;;5.66;100.00
57056;BME280;42945;51.718;5.324;2022-11-15T01:06:03;100593.69;;;5.69;100.00
57056;BME280;42945;51.718;5.324;2022-11-15T01:08:28;100583.88;;;5.73;100.00
57056;BME280;42945;51.718;5.324;2022-11-15T01:10:54;100610.56;;;5.86;100.00
57056;BME280;42945;51.718;5.324;2022-11-15T01:13:19;100588.00;;;5.80;100.00
57056;BME280;42945;51.718;5.324;2022-11-15T01:15:44;100585.16;;;5.85;100.00
57056;BME280;42945;51.718;5.324;2022-11-15T01:18:10;100612.09;;;5.91;100.00
57056;BME280;42945;51.718;5.324;2022-11-15T01:20:42;100604.81;;;5.98;100.00
57056;BME280;42945;51.718;5.324;2022-11-15T01:23:07;100606.72;;;5.93;100.00
57056;BME280;42945;51.718;5.324;2022-11-15T01:25:33;100363.50;;;4.77;100.00
57056;BME280;42945;51.718;5.324;2022-11-15T01:27:58;100574.53;;;6.08;100.00
57056;BME280;42945;51.718;5.324;2022-11-15T01:30:24;100584.94;;;6.11;100.00
57056;BME280;42945;51.718;5.324;2022-11-15T01:32:50;100464.91;;;5.46;100.00
57056;BME280;42945;51.718;5.324;2022-11-15T01:35:16;100574.78;;;6.23;100.00
57056;BME280;42945;51.718;5.324;2022-11-15T01:37:41;100607.91;;;6.28;100.00
57056;BME280;42945;51.718;5.324;2022-11-15T01:40:07;100542.97;;;6.27;100.00
57056;BME280;42945;51.718;5.324;2022-11-15T01:42:32;100581.16;;;6.38;100.00
57056;BME280;42945;51.718;5.324;2022-11-15T01:44:57;100701.81;;;7.10;100.00
57056;BME280;42945;51.718;5.324;2022-11-15T01:47:31;100591.78;;;6.55;100.00
57056;BME280;42945;51.718;5.324;2022-11-15T01:50:04;100574.84;;;6.61;100.00
57056;BME280;42945;51.718;5.324;2022-11-15T01:52:33;100606.28;;;6.65;100.00
57056;BME280;42945;51.718;5.324;2022-11-15T01:55:20;100601.72;;;6.69;100.00
57056;BME280;42945;51.718;5.324;2022-11-15T01:57:48;100606.78;;;6.74;100.00
57056;BME280;42945;51.718;5.324;2022-11-15T02:00:16;100611.22;;;6.73;100.00
57056;BME280;42945;51.718;5.324;2022-11-15T02:02:42;100524.44;;;6.68;100.00
57056;BME280;42945;51.718;5.324;2022-11-15T02:05:08;100572.53;;;6.93;100.00
57056;BME280;42945;51.718;5.324;2022-11-15T02:07:35;100560.25;;;6.92;100.00
57056;BME280;42945;51.718;5.324;2022-11-15T02:10:06;100559.63;;;6.86;100.00
57056;BME280;42945;51.718;5.324;2022-11-15T02:12:32;100539.81;;;6.97;100.00
57056;BME280;42945;51.718;5.324;2022-11-15T02:14:58;100513.28;;;6.63;100.00
57056;BME280;42945;51.718;5.324;2022-11-15T02:17:48;100435.38;;;6.39;100.00
57056;BME280;42945;51.718;5.324;2022-11-15T02:20:42;100533.47;;;7.01;100.00
57056;BME280;42945;51.718;5.324;2022-11-15T02:28:48;100404.81;;;6.54;100.00
57056;BME280;42945;51.718;5.324;2022-11-15T02:38:59;100557.66;;;7.28;100.00
57056;BME280;42945;51.718;5.324;2022-11-15T02:41:38;100577.47;;;7.37;100.00
57056;BME280;42945;51.718;5.324;2022-11-15T02:44:12;100531.75;;;7.36;100.00
57056;BME280;42945;51.718;5.324;2022-11-15T02:46:48;100529.28;;;7.33;100.00
57056;BME280;42945;51.718;5.324;2022-11-15T02:49:34;100366.56;;;6.64;100.00
57056;BME280;42945;51.718;5.324;2022-11-15T02:52:00;100534.25;;;7.39;100.00
57056;BME280;42945;51.718;5.324;2022-11-15T02:54:29;100506.31;;;7.35;100.00
57056;BME280;42945;51.718;5.324;2022-11-15T02:57:01;100513.84;;;7.43;100.00
57056;BME280;42945;51.718;5.324;2022-11-15T02:59:37;100408.41;;;6.70;100.00
57056;BME280;42945;51.718;5.324;2022-11-15T03:07:52;100513.78;;;7.62;100.00
57056;BME280;42945;51.718;5.324;2022-11-15T03:12:55;100546.91;;;7.67;100.00
57056;BME280;42945;51.718;5.324;2022-11-15T03:15:32;100482.19;;;7.60;100.00
57056;BME280;42945;51.718;5.324;2022-11-15T03:18:04;100408.00;;;7.14;100.00
57056;BME280;42945;51.718;5.324;2022-11-15T03:20:34;100523.63;;;7.76;100.00
57056;BME280;42945;51.718;5.324;2022-11-15T03:23:04;100510.19;;;7.80;100.00
57056;BME280;42945;51.718;5.324;2022-11-15T03:25:31;100496.75;;;7.85;100.00
57056;BME280;42945;51.718;5.324;2022-11-15T03:28:01;100525.19;;;7.80;100.00
57056;BME280;42945;51.718;5.324;2022-11-15T03:30:30;100530.41;;;7.81;100.00
57056;BME280;42945;51.718;5.324;2022-11-15T03:32:58;100505.38;;;7.71;100.00
57056;BME280;42945;51.718;5.324;2022-11-15T03:35:27;100535.28;;;7.89;100.00
57056;BME280;42945;51.718;5.324;2022-11-15T03:43:36;100496.66;;;7.86;100.00
57056;BME280;42945;51.718;5.324;2022-11-15T03:46:23;100442.13;;;7.35;100.00
57056;BME280;42945;51.718;5.324;2022-11-15T03:48:54;100435.53;;;7.43;100.00
57056;BME280;42945;51.718;5.324;2022-11-15T03:51:21;100623.44;;;8.72;100.00
57056;BME280;42945;51.718;5.324;2022-11-15T03:53:47;100509.47;;;7.94;100.00
57056;BME280;42945;51.718;5.324;2022-11-15T03:56:12;100348.97;;;7.17;100.00
57056;BME280;42945;51.718;5.324;2022-11-15T03:58:37;100534.38;;;8.06;100.00
57056;BME280;42945;51.718;5.324;2022-11-15T04:01:03;100272.47;;;6.66;100.00
57056;BME280;42945;51.718;5.324;2022-11-15T04:03:28;100500.72;;;7.94;100.00
57056;BME280;42945;51.718;5.324;2022-11-15T04:05:54;100512.75;;;7.99;100.00
57056;BME280;42945;51.718;5.324;2022-11-15T04:08:19;100424.47;;;7.37;100.00
57056;BME280;42945;51.718;5.324;2022-11-15T04:10:44;100501.72;;;8.08;0.00
57056;BME280;42945;51.718;5.324;2022-11-15T04:13:10;100506.38;;;8.03;100.00
57056;BME280;42945;51.718;5.324;2022-11-15T04:15:35;100399.16;;;7.15;100.00
57056;BME280;42945;51.718;5.324;2022-11-15T04:18:01;100535.88;;;7.94;100.00
57056;BME280;42945;51.718;5.324;2022-11-15T04:20:28;100435.16;;;7.16;100.00
57056;BME280;42945;51.718;5.324;2022-11-15T04:23:21;100479.97;;;7.86;100.00
57056;BME280;42945;51.718;5.324;2022-11-15T04:26:09;100394.81;;;7.32;100.00
57056;BME280;42945;51.718;5.324;2022-11-15T04:28:36;100553.81;;;8.05;100.00
57056;BME280;42945;51.718;5.324;2022-11-15T04:31:21;100363.78;;;7.37;100.00
57056;BME280;42945;51.718;5.324;2022-11-15T04:33:46;100490.38;;;8.06;100.00
57056;BME280;42945;51.718;5.324;2022-11-15T04:36:12;100529.47;;;8.16;100.00
57056;BME280;42945;51.718;5.324;2022-11-15T04:38:56;100543.78;;;8.12;100.00
57056;BME280;42945;51.718;5.324;2022-11-15T04:41:21;100526.84;;;8.16;100.00
57056;BME280;42945;51.718;5.324;2022-11-15T04:43:46;100476.97;;;8.09;100.00
57056;BME280;42945;51.718;5.324;2022-11-15T04:46:12;100487.50;;;8.27;100.00
57056;BME280;42945;51.718;5.324;2022-11-15T04:48:37;100487.53;;;8.09;100.00
57056;BME280;42945;51.718;5.324;2022-11-15T04:51:03;100511.94;;;8.15;100.00
57056;BME280;42945;51.718;5.324;2022-11-15T04:53:28;100400.84;;;7.51;100.00
57056;BME280;42945;51.718;5.324;2022-11-15T04:55:53;100517.59;;;8.24;100.00
57056;BME280;42945;51.718;5.324;2022-11-15T04:58:19;100524.50;;;8.27;100.00
57056;BME280;42945;51.718;5.324;2022-11-15T05:00:44;100492.34;;;8.19;100.00
57056;BME280;42945;51.718;5.324;2022-11-15T05:03:10;100482.69;;;8.18;100.00
57056;BME280;42945;51.718;5.324;2022-11-15T05:05:53;100438.13;;;8.12;100.00
57056;BME280;42945;51.718;5.324;2022-11-15T05:08:19;100537.69;;;8.27;100.00
57056;BME280;42945;51.718;5.324;2022-11-15T05:10:44;100546.31;;;8.31;100.00
57056;BME280;42945;51.718;5.324;2022-11-15T05:13:10;100509.66;;;8.24;100.00
57056;BME280;42945;51.718;5.324;2022-11-15T05:15:35;100371.34;;;7.60;100.00
57056;BME280;42945;51.718;5.324;2022-11-15T05:18:01;100518.94;;;8.32;100.00
57056;BME280;42945;51.718;5.324;2022-11-15T05:20:26;100518.78;;;8.35;100.00
57056;BME280;42945;51.718;5.324;2022-11-15T05:22:53;100520.97;;;8.44;100.00
57056;BME280;42945;51.718;5.324;2022-11-15T05:25:20;100464.56;;;8.27;100.00
57056;BME280;42945;51.718;5.324;2022-11-15T05:27:46;100433.59;;;7.64;100.00
57056;BME280;42945;51.718;5.324;2022-11-15T05:30:11;100531.47;;;8.45;100.00
57056;BME280;42945;51.718;5.324;2022-11-15T05:32:36;100545.06;;;8.38;100.00
57056;BME280;42945;51.718;5.324;2022-11-15T05:35:02;100531.25;;;8.33;100.00
57056;BME280;42945;51.718;5.324;2022-11-15T05:37:30;100413.88;;;7.72;100.00
57056;BME280;42945;51.718;5.324;2022-11-15T05:39:57;100507.38;;;8.34;100.00
57056;BME280;42945;51.718;5.324;2022-11-15T05:42:22;100502.56;;;8.42;100.00
57056;BME280;42945;51.718;5.324;2022-11-15T05:44:49;100514.13;;;8.40;100.00
57056;BME280;42945;51.718;5.324;2022-11-15T05:47:21;100388.47;;;7.69;100.00
57056;BME280;42945;51.718;5.324;2022-11-15T05:49:50;100537.03;;;8.39;100.00
57056;BME280;42945;51.718;5.324;2022-11-15T05:52:20;100506.00;;;8.27;100.00
57056;BME280;42945;51.718;5.324;2022-11-15T05:54:48;100535.75;;;8.31;100.00
57056;BME280;42945;51.718;5.324;2022-11-15T05:57:14;100477.69;;;8.29;100.00
57056;BME280;42945;51.718;5.324;2022-11-15T05:59:39;100520.59;;;8.34;100.00
57056;BME280;42945;51.718;5.324;2022-11-15T06:02:06;100479.16;;;8.35;100.00
57056;BME280;42945;51.718;5.324;2022-11-15T06:04:31;100379.41;;;7.57;100.00
57056;BME280;42945;51.718;5.324;2022-11-15T06:06:58;100533.94;;;8.31;100.00
57056;BME280;42945;51.718;5.324;2022-11-15T06:09:23;100501.66;;;8.26;100.00
57056;BME280;42945;51.718;5.324;2022-11-15T06:11:49;100338.72;;;7.61;100.00
57056;BME280;42945;51.718;5.324;2022-11-15T06:14:14;100493.19;;;8.19;100.00
57056;BME280;42945;51.718;5.324;2022-11-15T06:16:39;100494.72;;;8.23;100.00
57056;BME280;42945;51.718;5.324;2022-11-15T06:19:06;100544.00;;;8.24;100.00
57056;BME280;42945;51.718;5.324;2022-11-15T06:21:32;100451.81;;;7.69;100.00
57056;BME280;42945;51.718;5.324;2022-11-15T06:23:57;100519.13;;;8.28;100.00
57056;BME280;42945;51.718;5.324;2022-11-15T06:26:22;100393.81;;;7.67;100.00
57056;BME280;42945;51.718;5.324;2022-11-15T06:28:48;100424.66;;;7.67;100.00
57056;BME280;42945;51.718;5.324;2022-11-15T06:31:13;100654.72;;;8.97;100.00
57056;BME280;42945;51.718;5.324;2022-11-15T06:33:39;100531.94;;;8.36;100.00
57056;BME280;42945;51.718;5.324;2022-11-15T06:36:07;100534.97;;;8.28;100.00
57056;BME280;42945;51.718;5.324;2022-11-15T06:38:34;100535.34;;;8.38;100.00
57056;BME280;42945;51.718;5.324;2022-11-15T06:41:04;100595.06;;;8.42;100.00
57056;BME280;42945;51.718;5.324;2022-11-15T06:43:30;100552.50;;;8.47;100.00
57056;BME280;42945;51.718;5.324;2022-11-15T06:46:01;100515.69;;;8.11;100.00
57056;BME280;42945;51.718;5.324;2022-11-15T06:48:27;100566.69;;;8.46;100.00
57056;BME280;42945;51.718;5.324;2022-11-15T06:50:54;100557.13;;;8.43;100.00
57056;BME280;42945;51.718;5.324;2022-11-15T06:53:20;100518.47;;;8.41;100.00
57056;BME280;42945;51.718;5.324;2022-11-15T06:55:45;100507.03;;;8.40;100.00
57056;BME280;42945;51.718;5.324;2022-11-15T06:58:11;100432.63;;;8.16;100.00
57056;BME280;42945;51.718;5.324;2022-11-15T07:00:36;100579.81;;;8.47;100.00
57056;BME280;42945;51.718;5.324;2022-11-15T07:03:02;100600.28;;;8.44;100.00
57056;BME280;42945;51.718;5.324;2022-11-15T07:05:27;100564.97;;;8.45;100.00
57056;BME280;42945;51.718;5.324;2022-11-15T07:07:54;100391.81;;;7.73;100.00
57056;BME280;42945;51.718;5.324;2022-11-15T07:10:20;100595.16;;;8.57;100.00
57056;BME280;42945;51.718;5.324;2022-11-15T07:12:48;100527.69;;;8.34;100.00
57056;BME280;42945;51.718;5.324;2022-11-15T07:15:14;100588.75;;;8.45;100.00
57056;BME280;42945;51.718;5.324;2022-11-15T07:17:40;100424.25;;;7.75;100.00
57056;BME280;42945;51.718;5.324;2022-11-15T07:20:05;100587.81;;;8.46;100.00
57056;BME280;42945;51.718;5.324;2022-11-15T07:22:31;100502.66;;;7.90;100.00
57056;BME280;42945;51.718;5.324;2022-11-15T07:24:56;100543.59;;;8.50;100.00
57056;BME280;42945;51.718;5.324;2022-11-15T07:27:22;101005.56;;;11.17;100.00
57056;BME280;42945;51.718;5.324;2022-11-15T07:29:47;100564.03;;;8.46;100.00
57056;BME280;42945;51.718;5.324;2022-11-15T07:32:12;100534.06;;;8.63;100.00
57056;BME280;42945;51.718;5.324;2022-11-15T07:34:38;100389.38;;;7.85;100.00
57056;BME280;42945;51.718;5.324;2022-11-15T07:37:03;100476.41;;;7.87;100.00
57056;BME280;42945;51.718;5.324;2022-11-15T07:39:28;100564.31;;;8.57;100.00
57056;BME280;42945;51.718;5.324;2022-11-15T07:41:54;100335.97;;;7.14;100.00
57056;BME280;42945;51.718;5.324;2022-11-15T07:44:39;100559.97;;;8.56;100.00
57056;BME280;42945;51.718;5.324;2022-11-15T07:47:04;100541.03;;;8.64;100.00
57056;BME280;42945;51.718;5.324;2022-11-15T07:49:30;100575.25;;;8.67;100.00
57056;BME280;42945;51.718;5.324;2022-11-15T07:51:55;100547.50;;;8.58;100.00
57056;BME280;42945;51.718;5.324;2022-11-15T07:54:22;100569.19;;;8.65;100.00
57056;BME280;42945;51.718;5.324;2022-11-15T07:56:47;100576.38;;;8.79;100.00
57056;BME280;42945;51.718;5.324;2022-11-15T07:59:12;100632.06;;;9.25;100.00
57056;BME280;42945;51.718;5.324;2022-11-15T08:01:38;100535.59;;;8.67;100.00
57056;BME280;42945;51.718;5.324;2022-11-15T08:04:03;100556.06;;;8.79;100.00
57056;BME280;42945;51.718;5.324;2022-11-15T08:06:28;100562.97;;;8.66;100.00
57056;BME280;42945;51.718;5.324;2022-11-15T08:08:54;100565.59;;;8.66;100.00
57056;BME280;42945;51.718;5.324;2022-11-15T08:11:19;100539.09;;;8.67;100.00
57056;BME280;42945;51.718;5.324;2022-11-15T08:13:44;100559.13;;;8.72;100.00
57056;BME280;42945;51.718;5.324;2022-11-15T08:16:09;100560.50;;;8.63;100.00
57056;BME280;42945;51.718;5.324;2022-11-15T08:18:37;100596.50;;;8.81;100.00
57056;BME280;42945;51.718;5.324;2022-11-15T08:21:03;100456.53;;;8.13;100.00
57056;BME280;42945;51.718;5.324;2022-11-15T08:23:28;100453.81;;;8.15;100.00
57056;BME280;42945;51.718;5.324;2022-11-15T08:25:59;100625.72;;;8.96;100.00
57056;BME280;42945;51.718;5.324;2022-11-15T08:28:24;100535.03;;;8.94;100.00
57056;BME280;42945;51.718;5.324;2022-11-15T08:30:50;100513.75;;;8.79;100.00
57056;BME280;42945;51.718;5.324;2022-11-15T08:33:15;100647.41;;;9.50;100.00
57056;BME280;42945;51.718;5.324;2022-11-15T08:35:42;100548.81;;;8.83;100.00
57056;BME280;42945;51.718;5.324;2022-11-15T08:38:08;100473.63;;;8.39;100.00
57056;BME280;42945;51.718;5.324;2022-11-15T08:40:33;100503.19;;;8.79;100.00
57056;BME280;42945;51.718;5.324;2022-11-15T08:42:59;100421.78;;;8.05;100.00
57056;BME280;42945;51.718;5.324;2022-11-15T08:45:27;100545.00;;;8.89;100.00
57056;BME280;42945;51.718;5.324;2022-11-15T08:47:52;100439.19;;;8.25;100.00
57056;BME280;42945;51.718;5.324;2022-11-15T08:50:18;100381.66;;;8.30;100.00
57056;BME280;42945;51.718;5.324;2022-11-15T08:52:43;100395.03;;;8.27;100.00
57056;BME280;42945;51.718;5.324;2022-11-15T08:55:09;100400.31;;;8.27;100.00
57056;BME280;42945;51.718;5.324;2022-11-15T08:57:35;100501.13;;;9.00;100.00
57056;BME280;42945;51.718;5.324;2022-11-15T09:00:01;100507.78;;;8.92;100.00
57056;BME280;42945;51.718;5.324;2022-11-15T09:02:26;100505.56;;;9.00;100.00
57056;BME280;42945;51.718;5.324;2022-11-15T09:04:51;100542.78;;;8.97;100.00
57056;BME280;42945;51.718;5.324;2022-11-15T09:07:17;100513.41;;;9.01;100.00
57056;BME280;42945;51.718;5.324;2022-11-15T09:09:45;100464.47;;;8.94;100.00
57056;BME280;42945;51.718;5.324;2022-11-15T09:12:10;100523.13;;;9.01;100.00
57056;BME280;42945;51.718;5.324;2022-11-15T09:14:36;100544.63;;;9.26;100.00
57056;BME280;42945;51.718;5.324;2022-11-15T09:17:01;100507.78;;;9.07;100.00
57056;BME280;42945;51.718;5.324;2022-11-15T09:19:27;100384.25;;;8.47;100.00
57056;BME280;42945;51.718;5.324;2022-11-15T09:21:52;100377.84;;;8.52;100.00
57056;BME280;42945;51.718;5.324;2022-11-15T09:24:20;100483.09;;;9.07;100.00
57056;BME280;42945;51.718;5.324;2022-11-15T09:26:46;100478.06;;;9.18;100.00
57056;BME280;42945;51.718;5.324;2022-11-15T09:29:14;100450.16;;;9.13;100.00
57056;BME280;42945;51.718;5.324;2022-11-15T09:31:39;100468.00;;;9.25;100.00
57056;BME280;42945;51.718;5.324;2022-11-15T09:34:04;100520.63;;;9.30;100.00
57056;BME280;42945;51.718;5.324;2022-11-15T09:36:30;100437.66;;;9.00;100.00
57056;BME280;42945;51.718;5.324;2022-11-15T09:38:57;100458.25;;;9.25;100.00
57056;BME280;42945;51.718;5.324;2022-11-15T09:41:48;100478.78;;;9.36;100.00
57056;BME280;42945;51.718;5.324;2022-11-15T09:44:23;100447.50;;;9.29;100.00
57056;BME280;42945;51.718;5.324;2022-11-15T09:47:22;100497.13;;;9.39;100.00
57056;BME280;42945;51.718;5.324;2022-11-15T09:49:54;100363.41;;;8.73;100.00
57056;BME280;42945;51.718;5.324;2022-11-15T09:52:21;100500.25;;;9.62;100.00
57056;BME280;42945;51.718;5.324;2022-11-15T09:54:48;100482.84;;;9.58;100.00
57056;BME280;42945;51.718;5.324;2022-11-15T10:00:09;100365.66;;;8.95;100.00
57056;BME280;42945;51.718;5.324;2022-11-15T10:05:10;100476.72;;;9.72;100.00
57056;BME280;42945;51.718;5.324;2022-11-15T10:10:26;100340.97;;;9.25;100.00
57056;BME280;42945;51.718;5.324;2022-11-15T10:12:52;100372.69;;;9.84;100.00
57056;BME280;42945;51.718;5.324;2022-11-15T10:15:19;100446.44;;;9.90;100.00
57056;BME280;42945;51.718;5.324;2022-11-15T10:20:54;100417.81;;;9.97;98.39
57056;BME280;42945;51.718;5.324;2022-11-15T10:23:22;100431.31;;;9.92;97.29
57056;BME280;42945;51.718;5.324;2022-11-15T10:25:51;100526.56;;;10.67;97.72
57056;BME280;42945;51.718;5.324;2022-11-15T10:28:28;100265.84;;;9.13;96.77
57056;BME280;42945;51.718;5.324;2022-11-15T10:30:58;100401.81;;;9.70;97.52
57056;BME280;42945;51.718;5.324;2022-11-15T10:43:45;100387.06;;;9.80;96.36
57056;BME280;42945;51.718;5.324;2022-11-15T10:46:23;100385.00;;;9.85;95.97
57056;BME280;42945;51.718;5.324;2022-11-15T10:48:50;100421.19;;;10.28;94.21
57056;BME280;42945;51.718;5.324;2022-11-15T10:51:25;100397.63;;;9.94;92.57
57056;BME280;42945;51.718;5.324;2022-11-15T10:53:57;100374.47;;;9.83;93.50
57056;BME280;42945;51.718;5.324;2022-11-15T10:56:26;100376.56;;;9.78;93.16
57056;BME280;42945;51.718;5.324;2022-11-15T10:58:55;100289.25;;;9.05;91.80
57056;BME280;42945;51.718;5.324;2022-11-15T11:01:26;100357.94;;;9.80;92.12
57056;BME280;42945;51.718;5.324;2022-11-15T11:04:08;100245.81;;;9.23;91.84
57056;BME280;42945;51.718;5.324;2022-11-15T11:06:54;100353.00;;;9.88;90.47
57056;BME280;42945;51.718;5.324;2022-11-15T11:12:00;100387.22;;;10.05;89.37
57056;BME280;42945;51.718;5.324;2022-11-15T11:14:28;114542.94;;;94.09;97.32
57056;BME280;42945;51.718;5.324;2022-11-15T11:41:04;100183.94;;;9.95;83.73
57056;BME280;42945;51.718;5.324;2022-11-15T11:47:09;100200.78;;;9.94;82.23
57056;BME280;42945;51.718;5.324;2022-11-15T11:49:51;100184.44;;;9.87;82.90
57056;BME280;42945;51.718;5.324;2022-11-15T11:54:59;100319.09;;;10.76;82.86
57056;BME280;42945;51.718;5.324;2022-11-15T11:57:40;100309.41;;;10.75;82.11
57056;BME280;42945;51.718;5.324;2022-11-15T12:00:19;100300.72;;;10.73;82.03
57056;BME280;42945;51.718;5.324;2022-11-15T12:03:24;100234.84;;;10.80;82.05
57056;BME280;42945;51.718;5.324;2022-11-15T12:05:59;100256.88;;;10.68;80.98
57056;BME280;42945;51.718;5.324;2022-11-15T12:08:35;100232.97;;;10.42;81.61
57056;BME280;42945;51.718;5.324;2022-11-15T12:11:23;100268.81;;;10.88;81.15
57056;BME280;42945;51.718;5.324;2022-11-15T12:13:59;100175.31;;;10.18;79.93
57056;BME280;42945;51.718;5.324;2022-11-15T12:16:28;100020.22;;;9.74;80.19
57056;BME280;42945;51.718;5.324;2022-11-15T12:18:56;100239.84;;;11.10;82.07
57056;BME280;42945;51.718;5.324;2022-11-15T12:21:29;100257.13;;;11.16;80.85
57056;BME280;42945;51.718;5.324;2022-11-15T12:24:41;100236.53;;;11.19;81.52
57056;BME280;42945;51.718;5.324;2022-11-15T12:29:41;100200.47;;;11.04;81.89
57056;BME280;42945;51.718;5.324;2022-11-15T12:34:50;100233.66;;;10.97;81.03
57056;BME280;42945;51.718;5.324;2022-11-15T12:40:23;100123.66;;;10.38;80.37
57056;BME280;42945;51.718;5.324;2022-11-15T12:43:32;100058.44;;;10.36;80.83
57056;BME280;42945;51.718;5.324;2022-11-15T12:45:50;100216.81;;;10.85;81.76
57056;BME280;42945;51.718;5.324;2022-11-15T12:58:28;100218.50;;;10.86;81.76
57056;BME280;42945;51.718;5.324;2022-11-15T13:01:07;100198.78;;;10.90;80.18
57056;BME280;42945;51.718;5.324;2022-11-15T13:03:33;100200.69;;;10.88;79.62
57056;BME280;42945;51.718;5.324;2022-11-15T13:06:01;100049.50;;;10.24;79.75
57056;BME280;42945;51.718;5.324;2022-11-15T13:08:41;100106.13;;;11.00;81.18
57056;BME280;42945;51.718;5.324;2022-11-15T13:11:42;100183.81;;;10.76;81.40
57056;BME280;42945;51.718;5.324;2022-11-15T13:19:46;100159.91;;;10.89;79.71
57056;BME280;42945;51.718;5.324;2022-11-15T13:22:11;100175.75;;;10.78;81.56
57056;BME280;42945;51.718;5.324;2022-11-15T13:24:56;100164.06;;;10.93;80.79
57056;BME280;42945;51.718;5.324;2022-11-15T13:27:21;100122.47;;;10.81;80.76
57056;BME280;42945;51.718;5.324;2022-11-15T13:29:47;100152.19;;;10.73;79.81
57056;BME280;42945;51.718;5.324;2022-11-15T13:32:14;100045.25;;;10.09;79.15
57056;BME280;42945;51.718;5.324;2022-11-15T13:34:45;100024.81;;;10.11;78.70
57056;BME280;42945;51.718;5.324;2022-11-15T13:37:31;100016.22;;;10.20;79.85
57056;BME280;42945;51.718;5.324;2022-11-15T13:40:19;100136.59;;;10.81;79.49
57056;BME280;42945;51.718;5.324;2022-11-15T13:42:45;100181.38;;;11.49;80.22
57056;BME280;42945;51.718;5.324;2022-11-15T13:45:14;100131.81;;;10.87;81.62
57056;BME280;42945;51.718;5.324;2022-11-15T13:47:40;100094.13;;;10.94;80.05
57056;BME280;42945;51.718;5.324;2022-11-15T13:50:05;100083.22;;;10.73;80.90
57056;BME280;42945;51.718;5.324;2022-11-15T13:52:34;100083.53;;;10.81;80.44
57056;BME280;42945;51.718;5.324;2022-11-15T13:55:10;100091.91;;;10.88;80.00
57056;BME280;42945;51.718;5.324;2022-11-15T14:03:26;100068.34;;;10.83;78.83
57056;BME280;42945;51.718;5.324;2022-11-15T14:06:08;100039.69;;;10.89;79.08
57056;BME280;42945;51.718;5.324;2022-11-15T14:08:38;100057.34;;;10.77;79.00
57056;BME280;42945;51.718;5.324;2022-11-15T14:11:17;100080.38;;;10.76;79.19
57056;BME280;42945;51.718;5.324;2022-11-15T14:16:41;100409.09;;;10.65;79.91
57056;BME280;42945;51.718;5.324;2022-11-15T14:22:07;100065.00;;;10.69;81.78
57056;BME280;42945;51.718;5.324;2022-11-15T14:24:33;100062.34;;;10.56;81.41
57056;BME280;42945;51.718;5.324;2022-11-15T14:27:19;99915.47;;;9.83;80.93
57056;BME280;42945;51.718;5.324;2022-11-15T14:29:44;100030.63;;;10.54;81.77
57056;BME280;42945;51.718;5.324;2022-11-15T14:32:18;100062.69;;;10.51;81.54
57056;BME280;42945;51.718;5.324;2022-11-15T14:34:45;100089.16;;;10.64;81.60
57056;BME280;42945;51.718;5.324;2022-11-15T14:37:25;100006.78;;;10.54;82.69
57056;BME280;42945;51.718;5.324;2022-11-15T14:39:51;100019.44;;;10.51;81.57
57056;BME280;42945;51.718;5.324;2022-11-15T14:42:18;99991.22;;;10.50;82.17
57056;BME280;42945;51.718;5.324;2022-11-15T14:44:44;100019.44;;;10.51;81.10
57056;BME280;42945;51.718;5.324;2022-11-15T14:47:09;100107.78;;;11.01;81.58
57056;BME280;42945;51.718;5.324;2022-11-15T14:49:35;99918.59;;;10.39;82.43
57056;BME280;42945;51.718;5.324;2022-11-15T14:52:00;99983.25;;;10.50;81.68
57056;BME280;42945;51.718;5.324;2022-11-15T14:54:26;99882.22;;;9.66;81.82
57056;BME280;42945;51.718;5.324;2022-11-15T14:56:51;99913.88;;;9.68;81.42